首页
METAR-TAF:

METAR-TAF

机场 :

Massena, 紐約州, 美国

纬度: 44-56-09N, 经度: 074-50-44W, 海拔: 66米

当前天气观测

该预报发布于32分钟前的07:53 UTC
风速12节,风向东北
温度 2°C
湿度 93%
气压 1018 hPa
能見度: 12.9公里
阴天层高于400英尺
小雨

METAR: KMSS 310753Z AUTO 04012KT 8SM -RA OVC004 02/01 A3006 RMK AO2 RAB32 SLP181 P0000 T00220011

时间: 04:25 (08:25 UTC)

预报

该预报发布于24分钟前的08:01 UTC
预报有效从31日的 08点(UTC)到 01日的 06点(UTC)
风速11节,风向东北
能見度: 10公里
阴天层高于400英尺
附近有阵雨
从 31日的 1100点(UTC)
风速12节,风向东北
能見度: 10公里
多云层高于4000英尺
从 31日的 2100点(UTC)
风速14节,风向东北,有时为22节阵风
能見度: 10公里
少量云层高于20000英尺
从 01日的 0200点(UTC)
风速6节,风向东北
能見度: 10公里
少量云层高于18000英尺

TAF: KMSS 310801Z 3108/0106 05011KT P6SM VCSH OVC004 FM311100 05012KT P6SM BKN040 FM312100 05014G22KT P6SM FEW200 FM010200 04006KT P6SM FEW180

超过4000个机场的气象观测和天气预报(METAR&TAF报告)。

可查询的气象台以黄色和红色小点在地图上表示。

将鼠标移到小点上方,可查看气象台名称。

然后点击查看天气观测和预报。

如需切换地图:点击带黑十字的绿色按钮放大地图;点击带横线的绿色按钮缩小地图;或者点击绿色箭头查看邻近地区的地图。


METAR-TAF: